Latest Weather Observations for West Roebuck

IDW60801

Issued at 4:05 am WST Thursday 2 October 2014 (issued every 30 minutes, with the page automatically refreshed every 10 minutes)

About weather observations | Map of weather stations | Latest weather observations for WA | Other Formats
Station Details ID: 003096 Name: WEST ROEBUCK Lat: -17.90 Lon: 122.31 Height: 32.0 m
Data from the previous 72 hours. | See also: Recent months for locations in Western Australia
Date/Time
WST
Temp
°C
App
Temp
°C
Dew
Point
Rel
Hum
%
Delta-T
°C
Wind Press
QNH
hPa
Press
MSL
hPa
Rain
since 9 am
mm
Dir
 
Spd
km/h
Gust
km/h
Spd
kts
Gust
kts
02/04:00am 22.3 - - - - NNW 9 13 5 7 - - 0.0
02/03:30am 22.4 - - - - NNW 9 13 5 7 - - 0.0
02/03:00am 22.7 - - - - WNW 11 13 6 7 - - 0.0
02/02:30am 22.7 - - - - WNW 13 17 7 9 - - 0.0
02/02:00am 22.8 - - - - WNW 11 13 6 7 - - 0.0
02/01:30am 22.9 - - - - WNW 9 13 5 7 - - 0.0
02/01:00am 22.8 - - - - WNW 11 13 6 7 - - 0.0
02/12:30am 22.8 - - - - WNW 11 13 6 7 - - 0.0
02/12:00am 23.1 - - - - WNW 13 15 7 8 - - 0.0
 
Date/Time
WST
Temp
°C
App
Temp
°C
Dew
Point
Rel
Hum
%
Delta-T
°C
Wind Press
QNH
hPa
Press
MSL
hPa
Rain
since 9 am
mm
Dir
 
Spd
km/h
Gust
km/h
Spd
kts
Gust
kts
01/11:30pm 23.3 - - - - NW 13 19 7 10 - - 0.0
01/11:00pm 23.3 - - - - N 13 20 7 11 - - 0.0
01/10:30pm 23.0 - - - - NW 11 17 6 9 - - 0.0
01/10:00pm 22.8 - - - - WNW 13 17 7 9 - - 0.0
01/09:30pm 22.5 - - - - WNW 4 9 2 5 - - 0.0
01/09:00pm 22.7 - - - - WNW 11 13 6 7 - - 0.0
01/08:30pm 23.0 - - - - NW 9 11 5 6 - - 0.0
01/08:00pm 23.6 - - - - NW 7 11 4 6 - - 0.0
01/07:30pm 24.2 - - - - WNW 9 13 5 7 - - 0.0
01/07:00pm 24.7 - - - - NW 15 19 8 10 - - 0.0
01/06:30pm 25.1 - - - - NW 17 22 9 12 - - 0.0
01/06:00pm 25.6 - - - - NW 19 30 10 16 - - 0.0
01/05:30pm 26.5 - - - - NW 22 35 12 19 - - 0.0
01/05:00pm 27.6 - - - - NW 28 37 15 20 - - 0.0
01/04:30pm 28.3 - - - - NW 28 43 15 23 - - 0.0
01/04:00pm 29.1 - - - - NW 30 41 16 22 - - 0.0
01/03:30pm 30.2 - - - - NW 30 41 16 22 - - 0.0
01/03:00pm 30.7 - - - - NW 33 46 18 25 - - 0.0
01/02:35pm 31.5 - - - - NW 32 50 17 27 - - 0.0
01/02:30pm 31.3 - - - - NW 32 44 17 24 - - 0.0
01/02:00pm 31.9 - - - - NW 32 48 17 26 - - 0.0
01/01:30pm 32.0 - - - - WNW 32 43 17 23 - - 0.0
01/01:00pm 33.5 - - - - NW 28 41 15 22 - - 0.0
01/12:30pm 32.5 - - - - NW 30 41 16 22 - - 0.0
01/12:00pm 33.0 - - - - NW 22 32 12 17 - - 0.0
01/11:30am 33.5 - - - - NW 22 30 12 16 - - 0.0
01/11:00am 32.8 - - - - NW 19 28 10 15 - - 0.0
01/10:30am 33.1 - - - - NW 20 28 11 15 - - 0.0
01/10:00am 31.9 - - - - NW 17 24 9 13 - - 0.0
01/09:30am 31.4 - - - - NW 17 26 9 14 - - 0.0
01/09:00am 30.4 - - - - NW 15 22 8 12 - - 0.0
01/08:30am 29.7 - - - - NNW 15 22 8 12 - - 0.0
01/08:00am 28.4 - - - - NNW 17 26 9 14 - - 0.0
01/07:30am 26.7 - - - - NNW 15 26 8 14 - - 0.0
01/07:00am 24.4 - - - - NW 15 20 8 11 - - 0.0
01/06:30am 22.5 - - - - N 13 17 7 9 - - 0.0
01/06:00am 21.3 - - - - NNW 11 13 6 7 - - 0.0
01/05:30am 21.3 - - - - NNW 11 15 6 8 - - 0.0
01/05:00am 21.3 - - - - NNW 11 17 6 9 - - 0.0
01/04:30am 21.5 - - - - NNW 13 17 7 9 - - 0.0
01/04:00am 22.0 - - - - NW 13 17 7 9 - - 0.0
01/03:30am 22.6 - - - - W 13 17 7 9 - - 0.0
01/03:00am 22.5 - - - - W 13 17 7 9 - - 0.0
01/02:30am 22.5 - - - - NW 9 13 5 7 - - 0.0
01/02:00am 22.2 - - - - NW 11 15 6 8 - - 0.0
01/01:30am 21.9 - - - - NW 11 13 6 7 - - 0.0
01/01:00am 22.4 - - - - NW 11 15 6 8 - - 0.0
01/12:30am 21.9 - - - - NW 11 13 6 7 - - 0.0
01/12:00am 21.6 - - - - NW 11 13 6 7 - - 0.0
 
Date/Time
WST
Temp
°C
App
Temp
°C
Dew
Point
Rel
Hum
%
Delta-T
°C
Wind Press
QNH
hPa
Press
MSL
hPa
Rain
since 9 am
mm
Dir
 
Spd
km/h
Gust
km/h
Spd
kts
Gust
kts
30/11:30pm 21.9 - - - - NW 9 13 5 7 - - 0.0
30/11:00pm 22.3 - - - - NW 9 13 5 7 - - 0.0
30/10:30pm 22.6 - - - - NNW 11 13 6 7 - - 0.0
30/10:00pm 22.8 - - - - NNW 11 13 6 7 - - 0.0
30/09:30pm 23.7 - - - - N 11 13 6 7 - - 0.0
30/09:00pm 25.0 - - - - NNW 11 15 6 8 - - 0.0
30/08:30pm 26.5 - - - - NNW 13 17 7 9 - - 0.0
30/08:00pm 26.6 - - - - W 17 20 9 11 - - 0.0
30/07:30pm 26.3 - - - - NW 11 17 6 9 - - 0.0
30/07:00pm 26.9 - - - - N 15 24 8 13 - - 0.0
30/06:30pm 26.9 - - - - NW 15 20 8 11 - - 0.0
30/06:00pm 27.6 - - - - NNW 15 19 8 10 - - 0.0
30/05:30pm 29.1 - - - - WSW 17 24 9 13 - - 0.0
30/05:00pm 30.8 - - - - WSW 17 28 9 15 - - 0.0
30/04:30pm 32.0 - - - - WSW 20 28 11 15 - - 0.0
30/04:00pm 32.9 - - - - WSW 20 32 11 17 - - 0.0
30/03:30pm 34.4 - - - - W 20 30 11 16 - - 0.0
30/03:00pm 34.4 - - - - WSW 20 30 11 16 - - 0.0
30/02:30pm 35.1 - - - - W 20 28 11 15 - - 0.0
30/02:00pm 35.1 - - - - WSW 19 24 10 13 - - 0.0
30/01:30pm 35.3 - - - - WSW 19 28 10 15 - - 0.0
30/01:00pm 36.0 - - - - WSW 19 24 10 13 - - 0.0
30/12:30pm 36.0 - - - - WSW 19 26 10 14 - - 0.0
30/12:00pm 36.8 - - - - WSW 20 28 11 15 - - 0.0
30/11:30am 37.4 - - - - SE 9 17 5 9 - - 0.0
30/11:00am 36.2 - - - - S 11 15 6 8 - - 0.0
30/10:30am 35.1 - - - - S 11 20 6 11 - - 0.0
30/10:00am 34.0 - - - - SSW 11 17 6 9 - - 0.0
30/09:30am 32.0 - - - - SW 13 20 7 11 - - 0.0
30/09:00am 30.9 - - - - SW 13 19 7 10 - - 0.0
30/08:30am 30.0 - - - - SSW 15 22 8 12 - - 0.0
30/08:00am 28.7 - - - - SW 11 17 6 9 - - 0.0
30/07:30am 27.1 - - - - SSW 11 19 6 10 - - 0.0
30/07:00am 24.7 - - - - WSW 9 13 5 7 - - 0.0
30/06:30am 21.3 - - - - W 9 9 5 5 - - 0.0
30/06:00am 19.6 - - - - W 9 11 5 6 - - 0.0
30/05:30am 19.1 - - - - W 11 13 6 7 - - 0.0
30/05:00am 19.4 - - - - W 9 11 5 6 - - 0.0
30/04:30am 19.4 - - - - W 11 13 6 7 - - 0.0
30/04:00am 19.9 - - - - WSW 11 13 6 7 - - 0.0
30/03:30am 19.8 - - - - WSW 11 13 6 7 - - 0.0
30/03:00am 19.3 - - - - W 9 11 5 6 - - 0.0
30/02:30am 20.4 - - - - WSW 6 7 3 4 - - 0.0
30/02:00am 21.3 - - - - WSW 7 9 4 5 - - 0.0
30/01:30am 21.9 - - - - W 9 13 5 7 - - 0.0
30/01:00am 22.0 - - - - WSW 11 15 6 8 - - 0.0
30/12:30am 21.4 - - - - WSW 9 11 5 6 - - 0.0
30/12:00am 20.4 - - - - W 11 11 6 6 - - 0.0
 
Date/Time
WST
Temp
°C
App
Temp
°C
Dew
Point
Rel
Hum
%
Delta-T
°C
Wind Press
QNH
hPa
Press
MSL
hPa
Rain
since 9 am
mm
Dir
 
Spd
km/h
Gust
km/h
Spd
kts
Gust
kts
29/11:30pm 20.6 - - - - WNW 11 13 6 7 - - 0.0
29/11:00pm 21.0 - - - - NW 9 13 5 7 - - 0.0
29/10:30pm 21.7 - - - - W 11 13 6 7 - - 0.0
29/10:00pm 21.7 - - - - WNW 11 13 6 7 - - 0.0
29/09:30pm 22.2 - - - - NW 9 11 5 6 - - 0.0
29/09:00pm 22.9 - - - - WNW 7 13 4 7 - - 0.0
29/08:30pm 22.9 - - - - NW 4 7 2 4 - - 0.0
29/08:00pm 24.6 - - - - WSW 11 19 6 10 - - 0.0
29/07:30pm 24.6 - - - - W 6 15 3 8 - - 0.0
29/07:00pm 25.9 - - - - SW 11 15 6 8 - - 0.0
29/06:30pm 26.6 - - - - WSW 13 17 7 9 - - 0.0
29/06:00pm 27.6 - - - - WSW 15 20 8 11 - - 0.0
29/05:30pm 28.7 - - - - WSW 17 22 9 12 - - 0.0
29/05:00pm 30.3 - - - - WSW 17 26 9 14 - - 0.0
29/04:30pm 31.5 - - - - SW 20 32 11 17 - - 0.0
29/04:00pm 33.5 - - - - WSW 24 33 13 18 - - 0.0
29/03:30pm 34.2 - - - - WSW 22 32 12 17 - - 0.0
29/03:00pm 33.7 - - - - WSW 24 32 13 17 - - 0.0
29/02:30pm 34.7 - - - - WSW 22 30 12 16 - - 0.0
29/02:00pm 35.4 - - - - WSW 20 28 11 15 - - 0.0
29/01:30pm 36.0 - - - - WSW 20 26 11 14 - - 0.0
29/01:00pm 36.5 - - - - SW 17 26 9 14 - - 0.0
29/12:30pm 36.8 - - - - SW 20 28 11 15 - - 0.0
29/12:00pm 37.6 - - - - SE 13 20 7 11 - - 0.0
29/11:30am 36.8 - - - - SE 13 24 7 13 - - 0.0
29/11:00am 35.8 - - - - SSE 13 26 7 14 - - 0.0
29/10:30am 34.4 - - - - S 9 17 5 9 - - 0.0
29/10:00am 33.3 - - - - S 11 19 6 10 - - 0.0
29/09:30am 31.4 - - - - S 9 17 5 9 - - 0.0
29/09:00am 30.1 - - - - SSW 13 20 7 11 - - 0.0
29/08:30am 29.8 - - - - S 11 19 6 10 - - 0.0
29/08:00am 28.3 - - - - SSW 13 20 7 11 - - 0.0
29/07:30am 26.1 - - - - SW 17 22 9 12 - - 0.0
29/07:00am 23.8 - - - - W 11 15 6 8 - - 0.0
29/06:30am 21.5 - - - - W 11 13 6 7 - - 0.0
29/06:00am 20.1 - - - - W 11 13 6 7 - - 0.0
29/05:30am 20.1 - - - - NW 6 9 3 5 - - 0.0
29/05:00am 20.8 - - - - W 11 13 6 7 - - 0.0
29/04:30am 20.0 - - - - W 9 13 5 7 - - 0.0

Other Formats:

Comma delimited format used in spreadsheet applications
http://www.bom.gov.au/fwo/IDW60801/IDW60801.95204.axf

JavaScript Object Notation format (JSON) in row-major order
http://www.bom.gov.au/fwo/IDW60801/IDW60801.95204.json